sensor_id;sensor_type;location;lat;lon;timestamp;P1;durP1;ratioP1;P2;durP2;ratioP2
77248;SDS011;66280;45.124;20.718;2023-07-02T00:01:24;10.00;;;5.63;;
77248;SDS011;66280;45.124;20.718;2023-07-02T00:11:25;9.77;;;5.50;;
77248;SDS011;66280;45.124;20.718;2023-07-02T00:21:26;8.57;;;5.47;;
77248;SDS011;66280;45.124;20.718;2023-07-02T00:31:27;6.33;;;4.60;;
77248;SDS011;66280;45.124;20.718;2023-07-02T00:41:27;10.00;;;5.10;;
77248;SDS011;66280;45.124;20.718;2023-07-02T00:51:28;8.00;;;5.30;;
77248;SDS011;66280;45.124;20.718;2023-07-02T01:01:29;10.53;;;5.37;;
77248;SDS011;66280;45.124;20.718;2023-07-02T01:11:30;10.23;;;6.43;;
77248;SDS011;66280;45.124;20.718;2023-07-02T01:21:32;10.70;;;5.22;;
77248;SDS011;66280;45.124;20.718;2023-07-02T01:31:33;8.60;;;5.07;;
77248;SDS011;66280;45.124;20.718;2023-07-02T01:41:37;9.70;;;5.83;;
77248;SDS011;66280;45.124;20.718;2023-07-02T01:51:49;8.02;;;6.47;;
77248;SDS011;66280;45.124;20.718;2023-07-02T02:01:50;9.10;;;6.17;;
77248;SDS011;66280;45.124;20.718;2023-07-02T02:11:50;11.40;;;6.40;;
77248;SDS011;66280;45.124;20.718;2023-07-02T02:21:51;7.97;;;5.70;;
77248;SDS011;66280;45.124;20.718;2023-07-02T02:31:52;11.23;;;6.93;;
77248;SDS011;66280;45.124;20.718;2023-07-02T02:41:53;10.63;;;7.57;;
77248;SDS011;66280;45.124;20.718;2023-07-02T02:51:55;8.27;;;5.60;;
77248;SDS011;66280;45.124;20.718;2023-07-02T03:01:56;13.23;;;6.63;;
77248;SDS011;66280;45.124;20.718;2023-07-02T03:11:57;11.30;;;6.93;;
77248;SDS011;66280;45.124;20.718;2023-07-02T03:21:57;11.80;;;7.83;;
77248;SDS011;66280;45.124;20.718;2023-07-02T03:31:58;13.85;;;8.05;;
77248;SDS011;66280;45.124;20.718;2023-07-02T03:41:58;15.33;;;7.80;;
77248;SDS011;66280;45.124;20.718;2023-07-02T03:51:59;10.40;;;7.70;;
77248;SDS011;66280;45.124;20.718;2023-07-02T04:02:00;13.37;;;9.17;;
77248;SDS011;66280;45.124;20.718;2023-07-02T04:12:00;13.10;;;8.63;;
77248;SDS011;66280;45.124;20.718;2023-07-02T04:22:01;14.23;;;9.20;;
77248;SDS011;66280;45.124;20.718;2023-07-02T04:32:02;16.40;;;9.63;;
77248;SDS011;66280;45.124;20.718;2023-07-02T04:42:03;13.97;;;9.20;;
77248;SDS011;66280;45.124;20.718;2023-07-02T04:52:03;16.42;;;10.13;;
77248;SDS011;66280;45.124;20.718;2023-07-02T05:02:04;15.47;;;9.10;;
77248;SDS011;66280;45.124;20.718;2023-07-02T05:12:05;16.15;;;10.15;;
77248;SDS011;66280;45.124;20.718;2023-07-02T05:22:06;16.37;;;10.80;;
77248;SDS011;66280;45.124;20.718;2023-07-02T05:32:06;14.47;;;10.13;;
77248;SDS011;66280;45.124;20.718;2023-07-02T05:42:07;16.23;;;10.20;;
77248;SDS011;66280;45.124;20.718;2023-07-02T05:52:08;16.40;;;11.17;;
77248;SDS011;66280;45.124;20.718;2023-07-02T06:02:09;17.30;;;10.80;;
77248;SDS011;66280;45.124;20.718;2023-07-02T06:12:09;18.43;;;11.80;;
77248;SDS011;66280;45.124;20.718;2023-07-02T06:22:10;14.67;;;10.77;;
77248;SDS011;66280;45.124;20.718;2023-07-02T06:32:11;16.50;;;11.77;;
77248;SDS011;66280;45.124;20.718;2023-07-02T06:42:11;17.00;;;11.13;;
77248;SDS011;66280;45.124;20.718;2023-07-02T06:52:13;15.65;;;11.13;;
77248;SDS011;66280;45.124;20.718;2023-07-02T07:02:14;13.77;;;12.00;;
77248;SDS011;66280;45.124;20.718;2023-07-02T07:12:14;16.57;;;12.60;;
77248;SDS011;66280;45.124;20.718;2023-07-02T07:22:15;12.67;;;10.70;;
77248;SDS011;66280;45.124;20.718;2023-07-02T07:32:16;12.60;;;9.83;;
77248;SDS011;66280;45.124;20.718;2023-07-02T07:42:16;23.38;;;9.80;;
77248;SDS011;66280;45.124;20.718;2023-07-02T07:52:17;10.50;;;9.40;;
77248;SDS011;66280;45.124;20.718;2023-07-02T08:02:18;10.80;;;9.70;;
77248;SDS011;66280;45.124;20.718;2023-07-02T08:12:18;12.20;;;11.00;;
77248;SDS011;66280;45.124;20.718;2023-07-02T08:22:19;11.67;;;9.53;;
77248;SDS011;66280;45.124;20.718;2023-07-02T08:32:20;10.73;;;9.73;;
77248;SDS011;66280;45.124;20.718;2023-07-02T08:42:21;11.10;;;9.40;;
77248;SDS011;66280;45.124;20.718;2023-07-02T08:52:22;10.90;;;9.90;;
77248;SDS011;66280;45.124;20.718;2023-07-02T09:02:32;20.00;;;9.70;;
77248;SDS011;66280;45.124;20.718;2023-07-02T09:12:33;28.08;;;21.42;;
77248;SDS011;66280;45.124;20.718;2023-07-02T09:22:33;8.15;;;7.40;;
77248;SDS011;66280;45.124;20.718;2023-07-02T09:32:35;8.20;;;7.33;;
77248;SDS011;66280;45.124;20.718;2023-07-02T09:42:35;10.07;;;8.67;;
77248;SDS011;66280;45.124;20.718;2023-07-02T09:52:41;10.57;;;7.22;;
77248;SDS011;66280;45.124;20.718;2023-07-02T10:02:47;11.40;;;8.87;;
77248;SDS011;66280;45.124;20.718;2023-07-02T10:12:48;9.23;;;7.73;;
77248;SDS011;66280;45.124;20.718;2023-07-02T10:22:49;10.30;;;8.15;;
77248;SDS011;66280;45.124;20.718;2023-07-02T10:32:50;9.77;;;7.33;;
77248;SDS011;66280;45.124;20.718;2023-07-02T10:42:52;7.50;;;6.83;;
77248;SDS011;66280;45.124;20.718;2023-07-02T10:52:53;8.23;;;6.60;;
77248;SDS011;66280;45.124;20.718;2023-07-02T11:02:54;7.68;;;6.95;;
77248;SDS011;66280;45.124;20.718;2023-07-02T11:12:54;10.10;;;7.50;;
77248;SDS011;66280;45.124;20.718;2023-07-02T11:22:55;8.40;;;7.70;;
77248;SDS011;66280;45.124;20.718;2023-07-02T11:32:56;10.13;;;8.87;;
77248;SDS011;66280;45.124;20.718;2023-07-02T11:42:57;9.83;;;8.83;;
77248;SDS011;66280;45.124;20.718;2023-07-02T11:52:57;9.53;;;7.43;;
77248;SDS011;66280;45.124;20.718;2023-07-02T12:02:58;12.10;;;9.30;;
77248;SDS011;66280;45.124;20.718;2023-07-02T12:12:59;15.47;;;8.97;;
77248;SDS011;66280;45.124;20.718;2023-07-02T12:22:59;10.23;;;9.23;;
77248;SDS011;66280;45.124;20.718;2023-07-02T12:33:00;9.60;;;8.03;;
77248;SDS011;66280;45.124;20.718;2023-07-02T12:43:01;7.87;;;7.17;;
77248;SDS011;66280;45.124;20.718;2023-07-02T12:53:01;8.70;;;7.90;;
77248;SDS011;66280;45.124;20.718;2023-07-02T13:03:02;10.03;;;9.03;;
77248;SDS011;66280;45.124;20.718;2023-07-02T13:13:03;7.93;;;7.13;;
77248;SDS011;66280;45.124;20.718;2023-07-02T13:23:05;8.00;;;7.20;;
77248;SDS011;66280;45.124;20.718;2023-07-02T13:33:06;13.70;;;8.77;;
77248;SDS011;66280;45.124;20.718;2023-07-02T13:43:06;11.90;;;10.13;;
77248;SDS011;66280;45.124;20.718;2023-07-02T13:53:08;10.87;;;9.77;;
77248;SDS011;66280;45.124;20.718;2023-07-02T14:03:08;10.47;;;8.87;;
77248;SDS011;66280;45.124;20.718;2023-07-02T14:13:09;14.83;;;9.57;;
77248;SDS011;66280;45.124;20.718;2023-07-02T14:23:10;11.23;;;10.10;;
77248;SDS011;66280;45.124;20.718;2023-07-02T14:33:11;9.67;;;8.67;;
77248;SDS011;66280;45.124;20.718;2023-07-02T14:43:11;10.37;;;9.00;;
77248;SDS011;66280;45.124;20.718;2023-07-02T14:53:12;12.60;;;7.27;;
77248;SDS011;66280;45.124;20.718;2023-07-02T15:03:13;7.70;;;6.53;;
77248;SDS011;66280;45.124;20.718;2023-07-02T15:13:14;8.95;;;8.15;;
77248;SDS011;66280;45.124;20.718;2023-07-02T15:23:14;7.60;;;6.90;;
77248;SDS011;66280;45.124;20.718;2023-07-02T15:33:15;10.73;;;7.23;;
77248;SDS011;66280;45.124;20.718;2023-07-02T15:43:16;8.47;;;7.67;;
77248;SDS011;66280;45.124;20.718;2023-07-02T15:53:17;10.63;;;7.43;;
77248;SDS011;66280;45.124;20.718;2023-07-02T16:03:18;9.23;;;8.20;;
77248;SDS011;66280;45.124;20.718;2023-07-02T16:13:19;8.38;;;7.53;;
77248;SDS011;66280;45.124;20.718;2023-07-02T16:23:19;8.73;;;7.17;;
77248;SDS011;66280;45.124;20.718;2023-07-02T16:33:20;11.37;;;8.97;;
77248;SDS011;66280;45.124;20.718;2023-07-02T16:43:21;8.23;;;7.37;;
77248;SDS011;66280;45.124;20.718;2023-07-02T16:53:22;19.83;;;10.13;;
77248;SDS011;66280;45.124;20.718;2023-07-02T17:03:22;11.60;;;8.27;;
77248;SDS011;66280;45.124;20.718;2023-07-02T17:13:23;12.20;;;7.90;;
77248;SDS011;66280;45.124;20.718;2023-07-02T17:23:23;9.60;;;8.53;;
77248;SDS011;66280;45.124;20.718;2023-07-02T17:33:24;8.23;;;7.30;;
77248;SDS011;66280;45.124;20.718;2023-07-02T17:43:25;10.07;;;9.07;;
77248;SDS011;66280;45.124;20.718;2023-07-02T17:53:26;8.90;;;8.10;;
77248;SDS011;66280;45.124;20.718;2023-07-02T18:03:27;9.68;;;7.22;;
77248;SDS011;66280;45.124;20.718;2023-07-02T18:13:28;9.53;;;7.77;;
77248;SDS011;66280;45.124;20.718;2023-07-02T18:23:29;12.87;;;9.03;;
77248;SDS011;66280;45.124;20.718;2023-07-02T18:33:29;11.00;;;8.93;;
77248;SDS011;66280;45.124;20.718;2023-07-02T18:43:31;12.60;;;9.17;;
77248;SDS011;66280;45.124;20.718;2023-07-02T18:53:33;12.40;;;8.37;;
77248;SDS011;66280;45.124;20.718;2023-07-02T19:03:34;9.63;;;7.27;;
77248;SDS011;66280;45.124;20.718;2023-07-02T19:13:35;10.33;;;8.50;;
77248;SDS011;66280;45.124;20.718;2023-07-02T19:23:36;11.53;;;7.97;;
77248;SDS011;66280;45.124;20.718;2023-07-02T19:33:36;10.73;;;8.60;;
77248;SDS011;66280;45.124;20.718;2023-07-02T19:43:37;18.43;;;9.03;;
77248;SDS011;66280;45.124;20.718;2023-07-02T19:53:38;11.50;;;10.17;;
77248;SDS011;66280;45.124;20.718;2023-07-02T20:03:39;11.77;;;9.97;;
77248;SDS011;66280;45.124;20.718;2023-07-02T20:13:39;13.30;;;10.05;;
77248;SDS011;66280;45.124;20.718;2023-07-02T20:23:40;13.32;;;9.98;;
77248;SDS011;66280;45.124;20.718;2023-07-02T20:33:41;12.77;;;9.83;;
77248;SDS011;66280;45.124;20.718;2023-07-02T20:43:41;12.68;;;9.30;;
77248;SDS011;66280;45.124;20.718;2023-07-02T20:53:43;13.27;;;10.10;;
77248;SDS011;66280;45.124;20.718;2023-07-02T21:03:44;12.10;;;10.67;;
77248;SDS011;66280;45.124;20.718;2023-07-02T21:13:45;14.50;;;10.17;;
77248;SDS011;66280;45.124;20.718;2023-07-02T21:23:45;13.47;;;10.47;;
77248;SDS011;66280;45.124;20.718;2023-07-02T21:33:46;11.63;;;10.00;;
77248;SDS011;66280;45.124;20.718;2023-07-02T21:43:47;17.65;;;12.55;;
77248;SDS011;66280;45.124;20.718;2023-07-02T21:53:47;16.77;;;11.23;;
77248;SDS011;66280;45.124;20.718;2023-07-02T22:03:48;14.70;;;12.20;;
77248;SDS011;66280;45.124;20.718;2023-07-02T22:13:49;12.30;;;10.23;;
77248;SDS011;66280;45.124;20.718;2023-07-02T22:23:51;13.75;;;9.85;;
77248;SDS011;66280;45.124;20.718;2023-07-02T22:33:51;12.33;;;8.60;;
77248;SDS011;66280;45.124;20.718;2023-07-02T22:43:52;13.17;;;8.33;;
77248;SDS011;66280;45.124;20.718;2023-07-02T22:53:53;16.83;;;8.07;;
77248;SDS011;66280;45.124;20.718;2023-07-02T23:03:53;13.17;;;8.40;;
77248;SDS011;66280;45.124;20.718;2023-07-02T23:13:54;10.43;;;5.70;;
77248;SDS011;66280;45.124;20.718;2023-07-02T23:23:55;8.33;;;5.33;;
77248;SDS011;66280;45.124;20.718;2023-07-02T23:33:55;9.57;;;5.13;;
77248;SDS011;66280;45.124;20.718;2023-07-02T23:43:56;10.60;;;4.87;;
77248;SDS011;66280;45.124;20.718;2023-07-02T23:53:57;9.40;;;5.27;;
